This is the latest recevied weather packets stored in our database for station/object KC4JIR. If no packets are shown the sender has not sent any weather packets the latest 10 day(s).
| Time | Temp. | Humidity | Pressure | Rain* | Wind** | Luminosity | Snow |
|---|---|---|---|---|---|---|---|
| 1778208150 | 21.67° C | 90% | 1011.4 hPa | 0 mm | - | 0 W/m² | - |
| 1778207847 | 21.67° C | 89% | 1011.1 hPa | 0 mm | - | 0 W/m² | - |
| 1778207545 | 22.22° C | 88% | 1011.1 hPa | 0 mm | - | 0 W/m² | - |
| 1778207240 | 22.22° C | 88% | 1010.9 hPa | 0 mm | - | 0 W/m² | - |
| 1778206937 | 22.22° C | 88% | 1010.8 hPa | 0 mm | - | 0 W/m² | - |
| 1778206633 | 22.22° C | 88% | 1011 hPa | 0 mm | - | 0 W/m² | - |
| 1778206329 | 21.67° C | 89% | 1011 hPa | 0 mm | - | 0 W/m² | - |
| 1778206027 | 21.11° C | 95% | 1010.7 hPa | 0 mm | - | 0 W/m² | - |
| 1778205723 | 21.11° C | 99% | 1010.6 hPa | 0 mm | - | 0 W/m² | - |
| 1778205421 | 21.11° C | 99% | 1010.9 hPa | 0 mm | - | 0 W/m² | - |
| 1778205118 | 21.11° C | 99% | 1010.7 hPa | 0 mm | - | 0 W/m² | - |
| 1778204814 | 21.11° C | 99% | 1010.6 hPa | 0 mm | - | 0 W/m² | - |
| 1778204510 | 21.11° C | 99% | 1010.5 hPa | 0 mm | - | 0 W/m² | - |
| 1778204207 | 21.11° C | 99% | 1010.4 hPa | 0 mm | - | 0 W/m² | - |
| 1778203903 | 21.67° C | 99% | 1010.3 hPa | 0 mm | - | 0 W/m² | - |
| 1778203601 | 21.67° C | 99% | 1010.2 hPa | 0 mm | - | 0 W/m² | - |
| 1778203298 | 21.67° C | 99% | 1010 hPa | 0 mm | - | 0 W/m² | - |
| 1778202390 | 21.67° C | 99% | 1009.8 hPa | 0 mm | - | 0 W/m² | - |
| 1778202088 | 21.67° C | 99% | 1009.8 hPa | 0 mm | - | 0 W/m² | - |
| 1778201785 | 21.67° C | 99% | 1009.9 hPa | 0 mm | - | 0 W/m² | - |
| 1778198143 | 23.33° C | 94% | 1009 hPa | 0 mm | - | 19 W/m² | - |
| 1778197841 | 23.33° C | 94% | 1008.9 hPa | 0 mm | - | 19 W/m² | - |
| 1778197537 | 23.33° C | 94% | 1009.1 hPa | 0 mm | - | 19 W/m² | - |
| 1778197234 | 23.89° C | 95% | 1009 hPa | 0 mm | - | 30 W/m² | - |
| 1778196931 | 23.89° C | 93% | 1008.9 hPa | 0 mm | - | 27 W/m² | - |
* Rain latest hour (hover to see other rain measurements)
** Current wind speed in m/s (hover to see current wind gust speed)